Time;durP1;ratioP1;P1;durP2;ratioP2;P2;SDS_P1;SDS_P2;PMS_P1;PMS_P2;Temp;Humidity;BMP_temperature;BMP_pressure;BME280_temperature;BME280_humidity;BME280_pressure;Samples;Min_cycle;Max_cycle;Signal;HPM_P1;HPM_P2
2023/09/22 00:00:14;;;;;;;35.83;34.63;;;;;;;17.16;100.00;99517.28;4933710;29;20563;-39
2023/09/22 00:02:43;;;;;;;36.20;35.00;;;;;;;17.16;100.00;99522.66;4935068;29;20497;-38
2023/09/22 00:05:13;;;;;;;37.40;36.20;;;;;;;17.12;100.00;99522.38;4935128;29;20432;-38
2023/09/22 00:07:41;;;;;;;39.07;37.87;;;;;;;17.11;100.00;99501.13;4935686;29;20436;-39
2023/09/22 00:10:12;;;;;;;38.50;36.90;;;;;;;17.09;100.00;99512.16;4934288;29;20865;-39
2023/09/22 00:12:40;;;;;;;39.00;37.70;;;;;;;17.09;100.00;99525.63;4935133;29;20552;-38
2023/09/22 00:15:10;;;;;;;44.13;42.00;;;;;;;17.07;100.00;99524.28;4935173;29;20523;-38
2023/09/22 00:17:37;;;;;;;43.83;42.33;;;;;;;17.06;100.00;99530.72;4935050;29;20864;-39
2023/09/22 00:20:08;;;;;;;41.10;39.70;;;;;;;17.03;100.00;99542.84;4933862;29;20806;-38
2023/09/22 00:22:37;;;;;;;42.47;41.07;;;;;;;17.03;100.00;99539.34;4935024;29;20460;-38
2023/09/22 00:25:05;;;;;;;46.03;44.20;;;;;;;17.02;100.00;99532.34;4934826;29;20433;-38
2023/09/22 00:27:33;;;;;;;45.60;44.07;;;;;;;16.99;100.00;99528.28;4932024;29;20428;-41
2023/09/22 00:30:01;;;;;;;47.43;45.93;;;;;;;16.98;100.00;99534.78;4933386;29;20476;-40
2023/09/22 00:32:28;;;;;;;48.90;47.00;;;;;;;16.98;100.00;99531.25;4934265;29;20539;-38
2023/09/22 00:34:57;;;;;;;49.27;47.67;;;;;;;16.97;100.00;99541.22;4934786;29;20436;-42
2023/09/22 00:37:24;;;;;;;47.57;45.97;;;;;;;16.96;100.00;99538.81;4934389;29;20443;-39
2023/09/22 00:39:54;;;;;;;47.50;45.90;;;;;;;16.95;100.00;99537.19;4933703;29;21043;-41
2023/09/22 00:42:21;;;;;;;49.00;47.30;;;;;;;16.94;100.00;99544.44;4934005;29;20460;-42
2023/09/22 00:44:49;;;;;;;49.93;48.23;;;;;;;16.93;100.00;99552.81;4933989;29;20445;-38
2023/09/22 00:47:18;;;;;;;47.47;45.77;;;;;;;16.93;100.00;99550.94;4934022;29;20944;-39
2023/09/22 00:49:48;;;;;;;43.73;42.23;;;;;;;16.91;100.00;99553.06;4933200;29;20568;-43
2023/09/22 00:52:18;;;;;;;43.40;41.90;;;;;;;16.90;100.00;99542.56;4934176;29;20520;-39
2023/09/22 00:54:48;;;;;;;44.23;42.67;;;;;;;16.88;100.00;99550.91;4934056;29;20443;-41
2023/09/22 00:57:18;;;;;;;45.87;44.27;;;;;;;16.84;100.00;99557.09;4933939;29;20443;-41
2023/09/22 00:59:47;;;;;;;46.37;44.77;;;;;;;16.83;100.00;99556.28;4933359;29;20460;-47
2023/09/22 01:02:15;;;;;;;46.13;44.50;;;;;;;16.84;100.00;99549.03;4933954;29;20464;-43
2023/09/22 01:04:43;;;;;;;45.63;43.73;;;;;;;16.84;100.00;99544.44;4933779;29;20429;-39
2023/09/22 01:07:11;;;;;;;45.43;43.73;;;;;;;16.85;100.00;99542.53;4933362;29;20868;-41
2023/09/22 01:09:38;;;;;;;43.40;41.70;;;;;;;16.85;100.00;99556.00;4932533;29;20476;-44
2023/09/22 01:12:06;;;;;;;44.77;43.07;;;;;;;16.84;100.00;99549.84;4933503;29;20829;-43
2023/09/22 01:14:35;;;;;;;43.30;41.80;;;;;;;16.82;100.00;99543.88;4933261;29;20543;-41
2023/09/22 01:17:03;;;;;;;45.10;43.40;;;;;;;16.83;100.00;99548.22;4933455;29;20465;-38
2023/09/22 01:19:31;;;;;;;46.50;44.77;;;;;;;16.84;100.00;99552.53;4933469;29;20464;-44
2023/09/22 01:22:00;;;;;;;43.23;41.73;;;;;;;16.88;100.00;99558.16;4933961;29;20597;-40
2023/09/22 01:24:28;;;;;;;47.67;45.83;;;;;;;16.85;100.00;99550.63;4934084;29;20797;-38
2023/09/22 01:26:55;;;;;;;46.53;44.77;;;;;;;16.84;100.00;99552.53;4934018;29;20971;-39
2023/09/22 01:29:23;;;;;;;48.30;46.50;;;;;;;16.86;100.00;99566.53;4933488;29;20571;-41
2023/09/22 01:31:51;;;;;;;44.53;42.77;;;;;;;16.88;100.00;99566.25;4933578;29;20571;-39
2023/09/22 01:34:20;;;;;;;46.57;44.77;;;;;;;16.85;100.00;99556.81;4934205;29;20463;-40
2023/09/22 01:36:48;;;;;;;47.90;45.73;;;;;;;16.85;100.00;99562.19;4933950;29;20599;-41
2023/09/22 01:39:17;;;;;;;48.57;46.60;;;;;;;16.86;100.00;99550.38;4934312;28;20465;-40
2023/09/22 01:41:45;;;;;;;49.13;47.13;;;;;;;16.88;100.00;99568.94;4933713;29;20461;-43
2023/09/22 01:44:12;;;;;;;54.23;52.07;;;;;;;16.84;100.00;99565.19;4934035;29;20527;-37
2023/09/22 01:46:40;;;;;;;52.00;50.00;;;;;;;16.85;100.00;99572.97;4933989;29;20471;-40
2023/09/22 01:49:08;;;;;;;49.70;47.70;;;;;;;16.81;100.00;99581.88;4933278;28;20467;-44
2023/09/22 01:51:38;;;;;;;41.07;39.50;;;;;;;16.75;100.00;99575.66;4933632;29;21063;-38
2023/09/22 01:54:06;;;;;;;42.10;40.50;;;;;;;16.70;100.00;99575.63;4934269;29;20841;-38
2023/09/22 01:56:35;;;;;;;39.73;38.43;;;;;;;16.62;100.00;99578.00;4933731;29;20472;-39
2023/09/22 01:59:03;;;;;;;41.47;39.97;;;;;;;16.62;100.00;99578.00;4933410;29;20556;-42
2023/09/22 02:01:31;;;;;;;39.07;37.77;;;;;;;16.60;100.00;99583.69;4933455;29;20476;-38
2023/09/22 02:03:59;;;;;;;41.17;39.77;;;;;;;16.56;100.00;99594.16;4937488;29;20437;-38
2023/09/22 02:06:26;;;;;;;41.03;39.73;;;;;;;16.55;100.00;99599.78;4937752;29;20809;-38
2023/09/22 02:08:54;;;;;;;42.40;41.00;;;;;;;16.51;100.00;99607.56;4937173;29;20559;-42
2023/09/22 02:11:22;;;;;;;41.67;40.27;;;;;;;16.50;100.00;99615.88;4936982;29;20482;-38
2023/09/22 02:13:51;;;;;;;40.87;39.50;;;;;;;16.43;100.00;99616.13;4937330;29;20446;-43
2023/09/22 02:16:20;;;;;;;41.67;40.27;;;;;;;16.45;100.00;99610.50;4937232;29;20861;-39
2023/09/22 02:18:48;;;;;;;43.93;42.50;;;;;;;16.42;100.00;99595.69;4936904;29;20527;-39
2023/09/22 02:21:17;;;;;;;42.43;41.03;;;;;;;16.39;100.00;99588.13;4937154;29;20790;-40
2023/09/22 02:23:45;;;;;;;41.70;40.40;;;;;;;16.35;100.00;99596.97;4937319;29;20857;-38
2023/09/22 02:26:12;;;;;;;40.37;39.07;;;;;;;16.29;100.00;99592.66;4937107;29;20436;-40
2023/09/22 02:28:40;;;;;;;42.57;41.27;;;;;;;16.27;100.00;99578.66;4936617;29;20556;-38
2023/09/22 02:31:09;;;;;;;45.10;43.50;;;;;;;16.24;100.00;99589.94;4937075;29;20476;-38
2023/09/22 02:33:37;;;;;;;45.27;43.80;;;;;;;16.23;100.00;99593.69;4937391;29;20451;-40
2023/09/22 02:36:05;;;;;;;42.53;41.23;;;;;;;16.19;100.00;99595.31;4937252;29;20440;-38
2023/09/22 02:38:33;;;;;;;45.73;44.23;;;;;;;16.15;100.00;99597.69;4936749;29;20832;-38
2023/09/22 02:41:00;;;;;;;46.00;44.40;;;;;;;16.13;100.00;99599.81;4936757;29;20857;-41
2023/09/22 02:43:28;;;;;;;45.73;43.97;;;;;;;16.03;100.00;99623.97;4936715;29;20461;-38
2023/09/22 02:45:56;;;;;;;46.13;44.63;;;;;;;15.97;100.00;99625.81;4937028;29;20441;-37
2023/09/22 02:48:25;;;;;;;44.83;43.33;;;;;;;15.97;100.00;99623.13;4936481;29;20456;-38
2023/09/22 02:50:53;;;;;;;44.50;43.10;;;;;;;15.99;100.00;99628.25;4936696;29;20476;-39
2023/09/22 02:53:20;;;;;;;42.43;40.87;;;;;;;15.98;100.00;99615.84;4936777;29;20499;-39
2023/09/22 02:55:48;;;;;;;42.73;41.43;;;;;;;15.96;100.00;99628.75;4936634;29;20436;-38
2023/09/22 02:58:16;;;;;;;43.73;42.03;;;;;;;15.95;100.00;99633.31;4936079;29;20467;-37
2023/09/22 03:00:44;;;;;;;42.70;41.20;;;;;;;15.97;100.00;99627.69;4936503;29;20439;-38
2023/09/22 03:03:13;;;;;;;43.03;41.63;;;;;;;15.96;100.00;99631.44;4936465;29;20554;-40
2023/09/22 03:05:42;;;;;;;42.43;40.93;;;;;;;15.97;100.00;99635.75;4936670;29;20437;-38
2023/09/22 03:08:10;;;;;;;44.73;43.33;;;;;;;15.95;100.00;99640.56;4936002;29;20536;-39
2023/09/22 03:10:39;;;;;;;44.43;42.80;;;;;;;15.96;100.00;99639.50;4936057;29;20515;-39
2023/09/22 03:13:07;;;;;;;44.17;42.67;;;;;;;15.97;100.00;99641.13;4935848;29;20452;-41
2023/09/22 03:15:35;;;;;;;43.83;42.43;;;;;;;15.98;100.00;99646.25;4935989;29;20487;-43
2023/09/22 03:18:04;;;;;;;44.67;43.07;;;;;;;16.00;100.00;99644.13;4936035;29;20556;-40
2023/09/22 03:20:32;;;;;;;47.33;45.73;;;;;;;16.03;100.00;99651.69;4936159;29;20805;-44
2023/09/22 03:23:01;;;;;;;46.30;44.80;;;;;;;16.03;100.00;99648.19;4936140;29;20461;-45
2023/09/22 03:25:29;;;;;;;49.07;47.30;;;;;;;16.04;100.00;99655.16;4936384;29;20441;-39
2023/09/22 03:27:56;;;;;;;48.43;46.83;;;;;;;16.03;100.00;99665.13;4935882;29;20440;-41
2023/09/22 03:30:24;;;;;;;47.53;46.00;;;;;;;16.03;100.00;99661.63;4935824;29;20480;-40
2023/09/22 03:32:53;;;;;;;46.37;44.87;;;;;;;16.03;100.00;99669.69;4935813;29;20460;-39
2023/09/22 03:35:21;;;;;;;48.47;46.87;;;;;;;16.01;100.00;99666.44;4936026;29;20547;-40
2023/09/22 03:37:52;;;;;;;47.90;46.20;;;;;;;15.99;100.00;99666.69;4936175;29;20437;-40
2023/09/22 03:40:30;;;;;;;46.40;44.90;;;;;;;15.98;100.00;99678.50;4927714;29;20453;-39
2023/09/22 03:42:59;;;;;;;47.50;46.00;;;;;;;15.96;100.00;99683.34;4935713;29;21003;-38
2023/09/22 03:45:26;;;;;;;47.97;46.20;;;;;;;15.90;100.00;99688.94;4935797;29;20448;-38
2023/09/22 03:47:54;;;;;;;48.17;46.50;;;;;;;15.92;100.00;99690.28;4932388;28;20473;-39
2023/09/22 03:50:22;;;;;;;50.97;49.13;;;;;;;15.90;100.00;99702.38;4934573;29;20480;-39
2023/09/22 03:52:49;;;;;;;48.63;47.00;;;;;;;15.86;100.00;99704.75;4934669;29;20972;-38
2023/09/22 03:55:17;;;;;;;48.43;46.83;;;;;;;15.83;100.00;99707.19;4935456;29;21022;-38
2023/09/22 03:57:46;;;;;;;46.40;44.70;;;;;;;15.80;100.00;99703.09;4935537;29;21056;-38
2023/09/22 04:00:18;;;;;;;49.17;47.40;;;;;;;15.72;100.00;99705.44;4931239;29;20460;-37
2023/09/22 04:02:47;;;;;;;52.23;50.30;;;;;;;15.73;100.00;99704.38;4928120;29;20484;-38
2023/09/22 04:05:15;;;;;;;51.97;50.17;;;;;;;15.73;100.00;99707.06;4927823;29;20447;-38
2023/09/22 04:07:43;;;;;;;47.37;45.87;;;;;;;15.70;100.00;99704.91;4927922;29;20441;-40
2023/09/22 04:10:11;;;;;;;48.90;47.30;;;;;;;15.71;100.00;99703.84;4934481;29;20525;-40
2023/09/22 04:12:39;;;;;;;46.00;44.20;;;;;;;15.73;100.00;99701.69;4932301;29;21016;-39
2023/09/22 04:15:09;;;;;;;48.07;46.17;;;;;;;15.73;100.00;99699.81;4929606;29;20471;-40
2023/09/22 04:17:38;;;;;;;47.10;45.50;;;;;;;15.73;100.00;99696.31;4933771;29;20539;-41
2023/09/22 04:20:08;;;;;;;52.03;50.23;;;;;;;15.69;100.00;99693.31;4933534;29;20471;-39
2023/09/22 04:22:36;;;;;;;50.20;48.50;;;;;;;15.68;100.00;99693.59;4935358;29;20452;-38
2023/09/22 04:25:10;;;;;;;56.37;54.47;;;;;;;15.67;100.00;99694.66;4934807;29;20992;-41
2023/09/22 04:27:43;;;;;;;55.20;53.40;;;;;;;15.61;100.00;99709.09;4938290;29;20472;-38
2023/09/22 04:30:15;;;;;;;53.00;51.30;;;;;;;15.58;100.00;99715.81;4934247;29;20612;-39
2023/09/22 04:32:44;;;;;;;61.33;59.23;;;;;;;15.54;100.00;99714.69;4935188;29;21001;-40
2023/09/22 04:35:12;;;;;;;59.17;57.17;;;;;;;15.49;100.00;99717.31;4934964;29;20821;-43
2023/09/22 04:37:40;;;;;;;60.87;58.83;;;;;;;15.46;100.00;99713.25;4934691;29;20433;-39
2023/09/22 04:40:20;;;;;;;60.07;58.07;;;;;;;15.41;100.00;99718.53;4934163;29;20524;-38
2023/09/22 04:42:48;;;;;;;60.73;58.63;;;;;;;15.43;100.00;99712.94;4927519;29;20463;-39
2023/09/22 04:45:19;;;;;;;63.33;61.03;;;;;;;15.43;100.00;99718.31;4934013;29;20500;-39
2023/09/22 04:47:47;;;;;;;63.87;61.67;;;;;;;15.44;100.00;99722.63;4933362;29;20936;-40
2023/09/22 04:50:16;;;;;;;62.33;60.23;;;;;;;15.48;100.00;99719.19;4933168;29;20536;-39
2023/09/22 04:52:45;;;;;;;63.50;61.13;;;;;;;15.48;100.00;99707.63;4933883;29;20511;-40
2023/09/22 04:55:13;;;;;;;62.60;60.60;;;;;;;15.51;100.00;99709.81;4933909;29;20437;-38
2023/09/22 04:57:40;;;;;;;66.23;63.83;;;;;;;15.53;100.00;99736.44;4933714;29;20507;-43
2023/09/22 05:00:13;;;;;;;62.83;60.83;;;;;;;15.59;100.00;99728.16;4932759;29;20515;-39
2023/09/22 05:02:43;;;;;;;63.20;61.10;;;;;;;15.60;100.00;99732.47;4933295;29;20456;-41
2023/09/22 05:05:11;;;;;;;60.50;58.40;;;;;;;15.62;100.00;99745.69;4933182;29;20464;-40
2023/09/22 05:07:39;;;;;;;60.97;58.90;;;;;;;15.65;100.00;99737.88;4933763;29;20433;-41
2023/09/22 05:10:08;;;;;;;56.23;54.23;;;;;;;15.65;100.00;99735.19;4932744;29;20469;-43
2023/09/22 05:12:36;;;;;;;58.03;55.83;;;;;;;15.64;100.00;99735.47;4934204;29;20491;-43
2023/09/22 05:15:04;;;;;;;55.77;53.77;;;;;;;15.66;100.00;99730.66;4934382;29;20523;-40
2023/09/22 05:17:33;;;;;;;57.93;55.73;;;;;;;15.66;100.00;99736.03;4934036;29;20433;-38
2023/09/22 05:20:04;;;;;;;55.60;53.10;;;;;;;15.69;100.00;99728.28;4933291;29;21031;-40
2023/09/22 05:22:31;;;;;;;54.50;52.70;;;;;;;15.73;100.00;99723.19;4934148;29;20465;-39
2023/09/22 05:24:59;;;;;;;55.00;53.10;;;;;;;15.74;100.00;99724.84;4934241;29;20488;-39
2023/09/22 05:27:28;;;;;;;56.50;54.60;;;;;;;15.74;100.00;99732.91;4938459;29;20437;-38
2023/09/22 05:29:56;;;;;;;55.10;53.17;;;;;;;15.73;100.00;99736.63;4933378;29;20461;-40
2023/09/22 05:32:23;;;;;;;52.20;50.20;;;;;;;15.74;100.00;99730.22;4934300;29;20492;-39
2023/09/22 05:34:52;;;;;;;54.50;52.60;;;;;;;15.77;100.00;99722.41;4934210;29;20512;-38
2023/09/22 05:37:21;;;;;;;51.97;50.00;;;;;;;15.80;100.00;99740.72;4933178;29;21008;-39
2023/09/22 05:39:49;;;;;;;50.70;49.00;;;;;;;15.80;100.00;99756.84;4925966;29;20488;-38
2023/09/22 05:42:16;;;;;;;53.57;51.40;;;;;;;15.84;100.00;99759.84;4934022;29;20460;-38
2023/09/22 05:44:44;;;;;;;49.80;48.00;;;;;;;15.88;100.00;99764.47;4933720;29;20433;-39
2023/09/22 05:47:12;;;;;;;52.37;50.47;;;;;;;15.88;100.00;99769.03;4934155;29;20474;-38
2023/09/22 05:49:40;;;;;;;49.80;48.03;;;;;;;15.88;100.00;99764.47;4933227;29;20460;-38
2023/09/22 05:52:07;;;;;;;46.43;44.83;;;;;;;15.90;100.00;99761.53;4933540;29;20488;-39
2023/09/22 05:54:36;;;;;;;44.90;43.30;;;;;;;15.91;100.00;99774.72;4932947;29;20535;-38
2023/09/22 05:57:04;;;;;;;43.30;41.70;;;;;;;15.95;100.00;99769.63;4932536;29;20504;-38
2023/09/22 05:59:32;;;;;;;47.10;45.50;;;;;;;16.04;100.00;99776.16;4931784;29;20496;-39
2023/09/22 06:02:00;;;;;;;45.17;43.27;;;;;;;16.10;100.00;99768.97;4932228;29;20548;-39
2023/09/22 06:04:29;;;;;;;43.83;42.13;;;;;;;16.08;100.00;99763.84;4932283;29;20437;-39
2023/09/22 06:06:57;;;;;;;42.97;41.37;;;;;;;16.14;100.00;99772.75;4932428;29;20500;-39
2023/09/22 06:09:25;;;;;;;45.50;43.63;;;;;;;16.15;100.00;99783.28;4931959;29;20468;-39
2023/09/22 06:11:54;;;;;;;45.97;44.23;;;;;;;16.12;100.00;99774.91;4932068;29;20488;-39
2023/09/22 06:14:22;;;;;;;44.57;42.63;;;;;;;16.13;100.00;99768.47;4932516;29;20467;-42
2023/09/22 06:16:50;;;;;;;45.57;43.77;;;;;;;16.14;100.00;99770.06;4933557;29;20516;-38
2023/09/22 06:19:20;;;;;;;43.80;41.90;;;;;;;16.17;100.00;99766.88;4932838;29;20515;-40
2023/09/22 06:21:48;;;;;;;38.43;36.97;;;;;;;16.53;100.00;99785.72;4932583;29;20449;-38
2023/09/22 06:24:15;;;;;;;37.57;36.13;;;;;;;16.68;100.00;99793.13;4933540;29;20816;-38
2023/09/22 06:26:43;;;;;;;37.93;36.57;;;;;;;16.79;100.00;99804.75;4938320;29;20471;-39
2023/09/22 06:29:12;;;;;;;38.90;37.50;;;;;;;16.93;100.00;99804.06;4933195;28;20466;-39
2023/09/22 06:31:40;;;;;;;36.13;34.83;;;;;;;16.99;100.00;99803.00;4933286;29;20591;-38
2023/09/22 06:34:08;;;;;;;37.30;35.80;;;;;;;17.06;100.00;99802.78;4933573;29;20814;-40
2023/09/22 06:36:36;;;;;;;36.93;35.53;;;;;;;17.10;100.00;99803.88;4933085;29;20440;-40
2023/09/22 06:39:07;;;;;;;38.43;37.03;;;;;;;17.14;100.00;99799.59;4931788;29;20483;-39
2023/09/22 06:41:36;;;;;;;39.17;37.40;;;;;;;17.17;100.00;99800.97;4931753;29;20463;-38
2023/09/22 06:44:06;;;;;;;41.30;39.70;;;;;;;17.22;100.00;99795.59;4932206;29;20465;-39
2023/09/22 06:46:35;;;;;;;40.63;38.73;;;;;;;17.19;100.00;99806.88;4931793;29;20437;-39
2023/09/22 06:49:07;;;;;;;43.77;41.77;;;;;;;17.14;100.00;99799.59;4933721;29;20463;-41
2023/09/22 06:51:37;;;;;;;42.40;40.43;;;;;;;17.08;100.00;99806.81;4934834;29;20456;-38
2023/09/22 06:54:05;;;;;;;43.33;41.43;;;;;;;17.02;100.00;99799.00;4935900;29;20460;-38
2023/09/22 06:56:34;;;;;;;43.73;41.83;;;;;;;17.04;100.00;99813.00;4935597;29;21183;-38
2023/09/22 06:59:16;;;;;;;39.40;37.70;;;;;;;17.17;100.00;99832.19;4935249;28;20551;-39
2023/09/22 07:01:45;;;;;;;39.40;37.50;;;;;;;17.37;100.00;99836.09;4934854;29;20464;-39
2023/09/22 07:04:13;;;;;;;38.53;36.90;;;;;;;17.39;100.00;99833.91;4935439;29;20444;-39
2023/09/22 07:06:41;;;;;;;37.57;36.00;;;;;;;17.55;100.00;99836.47;4935212;29;20448;-38
2023/09/22 07:09:11;;;;;;;36.40;34.83;;;;;;;17.64;100.00;99842.16;4934733;29;20472;-39
2023/09/22 07:11:40;;;;;;;34.83;33.07;;;;;;;17.91;100.00;99847.34;4935054;29;20460;-39
2023/09/22 07:14:08;;;;;;;37.30;35.60;;;;;;;17.81;100.00;99834.66;4935077;29;20480;-41
2023/09/22 07:16:37;;;;;;;36.13;34.33;;;;;;;17.81;100.00;99833.84;4935067;29;20487;-39
2023/09/22 07:19:06;;;;;;;34.87;33.37;;;;;;;17.84;100.00;99841.41;4934274;28;20468;-38
2023/09/22 07:21:34;;;;;;;36.17;34.67;;;;;;;17.93;100.00;99851.41;4934576;29;20475;-39
2023/09/22 07:24:02;;;;;;;35.70;33.93;;;;;;;18.18;100.00;99875.75;4936291;29;20932;-38
2023/09/22 07:26:30;;;;;;;33.97;32.37;;;;;;;18.42;100.00;99877.94;4935778;29;20439;-40
2023/09/22 07:28:59;;;;;;;33.80;32.30;;;;;;;18.39;100.00;99882.00;4935718;29;20467;-41
2023/09/22 07:31:30;;;;;;;36.23;34.63;;;;;;;18.36;100.00;99884.41;4935762;29;20531;-41
2023/09/22 07:33:59;;;;;;;36.27;34.37;;;;;;;18.11;100.00;99880.59;4936114;29;20487;-38
2023/09/22 07:36:28;;;;;;;37.07;35.30;;;;;;;18.07;100.00;99897.59;4936012;29;20833;-38
2023/09/22 07:38:55;;;;;;;36.10;34.40;;;;;;;17.97;100.00;99903.75;4928349;29;20526;-38
2023/09/22 07:41:23;;;;;;;38.70;36.70;;;;;;;17.84;100.00;99911.53;4935375;29;20523;-41
2023/09/22 07:43:52;;;;;;;38.80;36.90;;;;;;;17.69;100.00;99915.78;4935666;29;20437;-38
2023/09/22 07:46:22;;;;;;;38.10;36.17;;;;;;;17.63;100.00;99929.50;4935868;29;20797;-42
2023/09/22 07:48:51;;;;;;;38.50;36.70;;;;;;;17.72;100.00;99922.53;4934639;29;20816;-40
2023/09/22 07:51:20;;;;;;;38.70;36.70;;;;;;;17.90;100.00;99916.69;4934606;29;20441;-40
2023/09/22 07:53:49;;;;;;;40.60;38.50;;;;;;;17.99;100.00;99911.56;4935110;29;20498;-42
2023/09/22 07:56:18;;;;;;;37.60;35.37;;;;;;;18.21;100.00;99912.19;4935299;29;20447;-40
2023/09/22 07:58:45;;;;;;;36.90;34.97;;;;;;;18.19;100.00;99908.94;4934593;29;20471;-42
2023/09/22 08:01:29;;;;;;;37.40;35.47;;;;;;;18.14;100.00;99914.31;4933843;29;20499;-42
2023/09/22 08:03:57;;;;;;;37.27;35.13;;;;;;;18.25;100.00;99908.69;4934633;29;20432;-43
2023/09/22 08:06:27;;;;;;;38.07;36.10;;;;;;;18.47;100.00;99907.63;4934652;29;20861;-43
2023/09/22 08:08:56;;;;;;;37.40;35.40;;;;;;;18.84;100.00;99907.44;4934934;29;20486;-42
2023/09/22 08:11:24;;;;;;;40.53;38.43;;;;;;;19.16;100.00;99897.94;4934619;29;20440;-43
2023/09/22 08:13:51;;;;;;;37.80;35.80;;;;;;;19.06;100.00;99887.13;4934497;29;20566;-43
2023/09/22 08:16:20;;;;;;;39.57;37.37;;;;;;;18.97;100.00;99883.38;4934477;29;20440;-45
2023/09/22 08:18:47;;;;;;;38.73;36.73;;;;;;;18.99;100.00;99886.63;4934178;28;20599;-47
2023/09/22 08:21:15;;;;;;;39.70;37.50;;;;;;;19.08;100.00;99879.59;4934654;29;20447;-46
2023/09/22 08:23:43;;;;;;;35.60;33.90;;;;;;;19.20;100.00;99873.88;4934592;29;20436;-41
2023/09/22 08:26:19;;;;;;;42.20;39.97;;;;;;;19.23;100.00;99876.81;4934618;29;20469;-44
2023/09/22 08:28:47;;;;;;;38.30;36.30;;;;;;;19.34;100.00;99883.03;4934035;29;20471;-44
2023/09/22 08:31:15;;;;;;;38.00;36.10;;;;;;;19.62;100.00;99892.44;4934003;29;20551;-44
2023/09/22 08:33:42;;;;;;;39.20;37.10;;;;;;;19.53;100.00;99888.69;4934220;29;20518;-45
2023/09/22 08:36:11;;;;;;;38.10;35.90;;;;;;;19.43;100.00;99897.63;4934746;29;20440;-45
2023/09/22 08:38:39;;;;;;;37.13;35.13;;;;;;;19.54;100.00;99903.81;4933346;29;20482;-44
2023/09/22 08:41:07;;;;;;;37.77;35.77;;;;;;;19.56;100.00;99915.97;4934646;29;20487;-42
2023/09/22 08:43:36;;;;;;;34.77;32.90;;;;;;;19.57;100.00;99914.06;4934145;29;20515;-46
2023/09/22 08:46:05;;;;;;;34.90;33.20;;;;;;;19.61;100.00;99909.75;4934090;29;20761;-42
2023/09/22 08:48:34;;;;;;;35.90;34.10;;;;;;;19.73;100.00;99913.78;4933998;29;21122;-42
2023/09/22 08:51:04;;;;;;;36.50;34.57;;;;;;;19.79;100.00;99923.47;4934416;29;20432;-43
2023/09/22 08:53:32;;;;;;;35.37;33.40;;;;;;;20.09;100.00;99917.13;4934184;29;20522;-41
2023/09/22 08:56:01;;;;;;;32.37;30.80;;;;;;;20.39;100.00;99908.03;4934336;29;20461;-42
2023/09/22 08:58:29;;;;;;;33.53;31.83;;;;;;;20.56;100.00;99913.88;4933795;29;20456;-42
2023/09/22 09:00:58;;;;;;;32.87;31.20;;;;;;;20.56;100.00;99908.44;4933642;29;20479;-46
2023/09/22 09:03:27;;;;;;;31.63;30.03;;;;;;;20.66;100.00;99904.88;4934379;29;20975;-42
2023/09/22 09:06:06;;;;;;;32.00;30.40;;;;;;;20.49;100.00;99902.53;4934155;29;20444;-41
2023/09/22 09:08:35;;;;;;;32.43;30.73;;;;;;;20.25;100.00;99901.59;4933529;28;20890;-40
2023/09/22 09:11:07;;;;;;;31.10;29.60;;;;;;;20.23;100.00;99911.88;4933657;29;20527;-44
2023/09/22 09:13:36;;;;;;;31.97;30.37;;;;;;;20.16;100.00;99916.81;4933997;29;20488;-45
2023/09/22 09:16:07;;;;;;;29.23;27.83;;;;;;;20.02;100.00;99907.66;4934108;29;20472;-45
2023/09/22 09:18:35;;;;;;;30.40;28.80;;;;;;;19.99;100.00;99917.16;4933460;29;20468;-47
2023/09/22 09:21:09;;;;;;;29.17;27.67;;;;;;;19.93;100.00;99914.75;4933809;29;20437;-43
2023/09/22 09:23:37;;;;;;;30.00;28.30;;;;;;;19.80;100.00;99918.88;4934130;29;20475;-43
2023/09/22 09:26:05;;;;;;;28.87;27.30;;;;;;;19.82;100.00;99917.53;4934082;29;20440;-44
2023/09/22 09:28:40;;;;;;;30.17;28.60;;;;;;;20.09;100.00;99905.47;4933255;28;21076;-42
2023/09/22 09:31:10;;;;;;;28.60;27.20;;;;;;;20.06;100.00;99914.16;4927110;29;20467;-40
2023/09/22 09:33:51;;;;;;;28.07;26.77;;;;;;;20.28;100.00;99901.09;4933732;29;20476;-41
2023/09/22 09:36:18;;;;;;;27.87;26.40;;;;;;;20.53;100.00;99900.09;4934046;29;20459;-41
2023/09/22 09:38:46;;;;;;;26.27;25.07;;;;;;;20.80;100.00;99898.50;4933101;29;20483;-40
2023/09/22 09:41:16;;;;;;;27.97;26.50;;;;;;;20.97;100.00;99908.94;4933272;29;20491;-43
2023/09/22 09:43:46;;;;;;;25.90;24.50;;;;;;;21.14;100.00;99906.66;4933512;29;20515;-43
2023/09/22 09:46:17;;;;;;;26.73;25.33;;;;;;;21.56;100.00;99902.41;4933414;29;20464;-42
2023/09/22 09:48:46;;;;;;;26.63;25.33;;;;;;;21.82;100.00;99907.25;4933152;29;21015;-44
2023/09/22 09:51:20;;;;;;;26.67;25.20;;;;;;;21.53;100.00;99934.44;4933397;29;20435;-42
2023/09/22 09:53:51;;;;;;;24.87;23.57;;;;;;;20.90;100.00;99933.66;4933608;29;20468;-42
2023/09/22 09:56:19;;;;;;;23.97;22.90;;;;;;;20.48;100.00;99929.91;4933911;29;20443;-45
2023/09/22 09:58:48;;;;;;;20.83;20.03;;;;;;;20.10;100.00;99923.34;4933008;29;20463;-42
2023/09/22 10:01:19;;;;;;;21.50;20.60;;;;;;;19.76;100.00;99934.84;4933493;29;20450;-45
2023/09/22 10:03:47;;;;;;;20.10;19.30;;;;;;;19.43;100.00;99935.50;4933523;29;20940;-40
2023/09/22 10:06:19;;;;;;;21.30;20.30;;;;;;;19.55;100.00;99943.31;4933654;29;20487;-41
2023/09/22 10:08:46;;;;;;;20.33;19.43;;;;;;;19.50;100.00;99954.97;4932731;29;20547;-43
2023/09/22 10:11:15;;;;;;;20.63;19.83;;;;;;;19.68;100.00;99943.53;4933167;29;20440;-46
2023/09/22 10:13:43;;;;;;;20.23;19.33;;;;;;;19.81;100.00;99942.13;4933333;29;20628;-42
2023/09/22 10:16:11;;;;;;;20.57;19.80;;;;;;;20.13;100.00;99945.22;4933597;29;20440;-41
2023/09/22 10:18:51;;;;;;;18.97;18.17;;;;;;;20.22;100.00;99943.56;4932952;29;21008;-47
2023/09/22 10:21:39;;;;;;;17.50;16.90;;;;;;;20.39;100.00;99937.81;4932969;29;20530;-42
2023/09/22 10:24:19;;;;;;;16.97;16.27;;;;;;;20.76;100.00;99934.56;4935977;29;20523;-44
2023/09/22 10:27:08;;;;;;;16.17;15.60;;;;;;;21.11;100.00;99922.69;4936916;29;20813;-42
2023/09/22 10:29:45;;;;;;;14.67;13.97;;;;;;;21.09;100.00;99911.28;4936192;28;20463;-40
2023/09/22 10:32:24;;;;;;;13.37;12.97;;;;;;;21.52;100.00;99921.97;4937212;29;20463;-40
2023/09/22 10:34:54;;;;;;;11.80;11.50;;;;;;;21.77;100.00;99914.66;4937110;29;20475;-41
2023/09/22 10:37:23;;;;;;;13.33;12.73;;;;;;;21.50;100.00;99917.94;4936878;29;20508;-43
2023/09/22 10:39:52;;;;;;;12.00;11.50;;;;;;;21.52;100.00;99915.75;4936124;29;21034;-44
2023/09/22 10:42:21;;;;;;;11.07;10.67;;;;;;;21.35;100.00;99915.38;4936536;29;20455;-44
2023/09/22 10:44:56;;;;;;;11.57;11.17;;;;;;;21.53;100.00;99923.56;4936313;29;20432;-42
2023/09/22 10:47:24;;;;;;;9.83;9.53;;;;;;;21.38;100.00;99921.06;4936716;29;20435;-45
2023/09/22 10:49:53;;;;;;;9.60;9.20;;;;;;;21.69;100.00;99918.78;4935857;29;20502;-42
2023/09/22 10:52:21;;;;;;;9.33;8.90;;;;;;;21.75;100.00;99939.34;4936168;29;20456;-39
2023/09/22 10:54:49;;;;;;;10.60;10.00;;;;;;;21.77;100.00;99939.06;4936292;29;20476;-42
2023/09/22 10:57:27;;;;;;;9.63;9.03;;;;;;;21.51;100.00;99943.94;4936477;29;20452;-46
2023/09/22 10:59:56;;;;;;;9.80;9.40;;;;;;;21.73;100.00;99951.59;4935721;28;20469;-44
2023/09/22 11:02:25;;;;;;;9.47;8.93;;;;;;;21.87;100.00;99953.31;4936003;29;20468;-42
2023/09/22 11:04:54;;;;;;;9.40;8.80;;;;;;;21.51;100.00;99954.81;4936355;29;20443;-44
2023/09/22 11:07:31;;;;;;;8.50;8.10;;;;;;;21.20;100.00;99957.03;4936336;29;20434;-41
2023/09/22 11:10:00;;;;;;;7.37;6.97;;;;;;;21.27;100.00;99962.91;4935681;28;20464;-44
2023/09/22 11:12:27;;;;;;;7.83;7.53;;;;;;;21.71;100.00;99954.59;4936525;29;20552;-45
2023/09/22 11:14:55;;;;;;;7.90;7.60;;;;;;;21.31;100.00;99949.59;4936262;29;20555;-46
2023/09/22 11:17:37;;;;;;;8.33;7.80;;;;;;;21.17;100.00;99951.34;4936402;29;20499;-42